Terminal Aerodrome Forecast
Issued by NWS

Home | Current Version | Previous Version | Text Only | Print | Product List | Glossary Off
Versions: 1 2 3 4 5 6 7 8 9 10 11 12 13 14

440
FTUS43 KICT 220522
TAFHUT
TAF
KHUT 220522Z 2206/2306 02010KT P6SM OVC040
      TEMPO 2206/2209 6SM -RA BR
     FM220900 36013KT 5SM BR OVC030
     FM221200 36015G22KT 6SM BR OVC025
     FM221400 35016G23KT P6SM SCT150
     FM230000 33008KT P6SM SKC=

USA.gov is the U.S. government's official web portal to all federal, state and local government web resources and services.